Terminal Aerodrome Forecast
Issued by NWS Duluth, MN

Home | Current Version | Previous Version | Graphics & Text | Print | Product List | Glossary On
Versions: 1 2 3 4 5 6 7 8 9 10 11 12 13 14 15
000
FTUS43 KDLH 241700
TAFDLH
TAF
KDLH 241740Z 2418/2518 10006KT P6SM VCSH BKN060 OVC100
      TEMPO 2420/2424 -SHRA OVC045
     FM250300 09005KT 6SM -RA BR BKN035 OVC060
     FM250700 05012KT 2SM -RA BR SCT004 OVC010
     FM251200 05012KT 2SM -RA BR OVC007=

USA.gov is the U.S. government's official web portal to all federal, state and local government web resources and services.